createdAt,value
2022-10-23T00:00:30.268Z,99273.78
2022-10-23T00:01:42.382Z,99275.41
2022-10-23T00:02:44.583Z,99270.94
2022-10-23T00:03:47.572Z,99267.28
2022-10-23T00:04:52.838Z,99266.84
2022-10-23T00:05:54.570Z,99265.84
2022-10-23T00:06:56.447Z,99266.84
2022-10-23T00:08:00.317Z,99266.84
2022-10-23T00:09:04.197Z,99260.34
2022-10-23T00:10:06.487Z,99257.91
2022-10-23T00:11:14.526Z,99259.53
2022-10-23T00:12:16.221Z,99258.88
2022-10-23T00:13:17.901Z,99250.94
2022-10-23T00:14:23.043Z,99257.84
2022-10-23T00:15:27.527Z,99253.81
2022-10-23T00:16:29.657Z,99259.69
2022-10-23T00:17:32.848Z,99259.13
2022-10-23T00:18:35.082Z,99253.81
2022-10-23T00:19:36.819Z,99247.72
2022-10-23T00:20:38.595Z,99247.09
2022-10-23T00:21:40.694Z,99230.84
2022-10-23T00:22:42.499Z,99244.47
2022-10-23T00:23:44.930Z,99237.94
2022-10-23T00:24:46.701Z,99235.91
2022-10-23T00:25:48.448Z,99234.28
2022-10-23T00:26:51.043Z,99223.69
2022-10-23T00:27:52.733Z,99209.41
2022-10-23T00:28:55.356Z,99215.69
2022-10-23T00:29:57.080Z,99213.47
2022-10-23T00:31:02.560Z,99190.53
2022-10-23T00:32:04.422Z,99216.28
2022-10-23T00:33:06.428Z,99214.25
2022-10-23T00:34:08.766Z,99208.53
2022-10-23T00:35:10.876Z,99208.53
2022-10-23T00:36:14.880Z,99218.72
2022-10-23T00:37:16.603Z,99207.53
2022-10-23T00:38:18.376Z,99211.38
2022-10-23T00:39:20.078Z,99209.31
2022-10-23T00:40:21.826Z,99209.31
2022-10-23T00:41:28.672Z,99212.97
2022-10-23T00:42:30.596Z,99214.44
2022-10-23T00:43:33.082Z,99221.97
2022-10-23T00:44:34.687Z,99213.03
2022-10-23T00:45:36.471Z,99215.94
2022-10-23T00:46:39.409Z,99207.38
2022-10-23T00:47:41.142Z,99206.97
2022-10-23T00:48:42.919Z,99220.19
2022-10-23T00:49:44.637Z,99216.75
2022-10-23T00:50:47.865Z,99206.56
2022-10-23T00:51:57.032Z,99222.41
2022-10-23T00:53:02.497Z,99227.28
2022-10-23T00:55:28.426Z,99220.56
2022-10-23T00:56:31.820Z,99238.50
2022-10-23T00:57:33.531Z,99234.22
2022-10-23T00:58:35.255Z,99234.00
2022-10-23T00:59:37.081Z,99234.00
2022-10-23T01:00:48.893Z,99227.69
2022-10-23T01:01:50.742Z,99222.75
2022-10-23T01:02:53.288Z,99231.97
2022-10-23T01:03:56.024Z,99231.16
2022-10-23T01:04:57.756Z,99235.44
2022-10-23T01:06:27.453Z,99234.22
2022-10-23T01:07:52.668Z,99236.88
2022-10-23T01:09:18.027Z,99237.69
2022-10-23T01:11:15.399Z,99230.75
2022-10-23T01:12:29.887Z,99231.78
2022-10-23T01:15:11.672Z,99224.84
2022-10-23T01:16:27.302Z,99228.31
2022-10-23T01:18:21.218Z,99220.78
2022-10-23T01:19:43.942Z,99220.78
2022-10-23T01:20:50.427Z,99223.63
2022-10-23T01:22:00.577Z,99212.66
2022-10-23T01:23:23.925Z,99214.91
2022-10-23T01:24:37.711Z,99209.25
2022-10-23T01:25:52.002Z,99215.56
2022-10-23T01:27:19.946Z,99218.84
2022-10-23T01:28:41.873Z,99217.47
2022-10-23T01:29:49.878Z,99218.69
2022-10-23T01:30:51.701Z,99214.84
2022-10-23T01:32:08.258Z,99220.72
2022-10-23T01:33:33.598Z,99216.44
2022-10-23T01:34:54.173Z,99209.94
2022-10-23T01:36:04.305Z,99225.41
2022-10-23T01:37:11.778Z,99226.22
2022-10-23T01:38:19.966Z,99229.06
2022-10-23T01:39:34.361Z,99223.97
2022-10-23T01:40:49.028Z,99218.06
2022-10-23T01:41:56.042Z,99202.63
2022-10-23T01:43:04.567Z,99206.91
2022-10-23T01:44:16.566Z,99210.94
2022-10-23T01:45:25.635Z,99207.94
2022-10-23T01:46:28.203Z,99201.66
2022-10-23T01:47:33.732Z,99192.13
2022-10-23T01:48:37.289Z,99200.41
2022-10-23T01:49:42.135Z,99202.88
2022-10-23T01:50:46.022Z,99199.03
2022-10-23T01:51:53.068Z,99203.88
2022-10-23T01:52:54.816Z,99191.47
2022-10-23T01:53:59.958Z,99196.97
2022-10-23T01:55:02.094Z,99187.59
2022-10-23T01:56:07.588Z,99199.84
2022-10-23T01:57:13.164Z,99193.50
2022-10-23T01:58:16.357Z,99198.59
2022-10-23T01:59:23.463Z,99211.81
2022-10-23T02:00:25.399Z,99214.25
2022-10-23T02:01:30.205Z,99210.44
2022-10-23T02:02:34.329Z,99211.25
2022-10-23T02:03:39.375Z,99208.38
2022-10-23T02:04:55.461Z,99217.94
2022-10-23T02:05:57.651Z,99220.38
2022-10-23T02:06:59.506Z,99226.28
2022-10-23T02:08:01.856Z,99227.28
2022-10-23T02:09:04.800Z,99220.38
2022-10-23T02:10:08.803Z,99215.69
2022-10-23T02:11:14.569Z,99207.13
2022-10-23T02:12:30.308Z,99195.56
2022-10-23T02:13:44.299Z,99208.75
2022-10-23T02:14:57.758Z,99220.16
2022-10-23T02:16:14.619Z,99218.13
2022-10-23T02:17:29.674Z,99235.03
2022-10-23T02:19:06.641Z,99227.91
2022-10-23T02:20:22.697Z,99229.31
2022-10-23T02:21:34.959Z,99220.38
2022-10-23T02:22:47.325Z,99217.72
2022-10-23T02:23:56.169Z,99231.97
2022-10-23T02:25:06.192Z,99233.44
2022-10-23T02:26:17.140Z,99227.13
2022-10-23T02:27:45.422Z,99227.31
2022-10-23T02:28:54.299Z,99229.16
2022-10-23T02:30:05.464Z,99223.22
2022-10-23T02:31:10.254Z,99221.78
2022-10-23T02:32:14.714Z,99222.59
2022-10-23T02:33:17.697Z,99212.84
2022-10-23T02:34:19.496Z,99209.19
2022-10-23T02:35:23.763Z,99216.91
2022-10-23T02:36:25.444Z,99207.53
2022-10-23T02:37:27.222Z,99204.91
2022-10-23T02:38:31.556Z,99220.56
2022-10-23T02:39:33.388Z,99227.09
2022-10-23T02:40:41.263Z,99238.88
2022-10-23T02:42:01.139Z,99235.84
2022-10-23T02:43:23.619Z,99244.00
2022-10-23T02:44:25.309Z,99239.09
2022-10-23T02:45:36.669Z,99238.88
2022-10-23T02:46:53.731Z,99232.97
2022-10-23T02:48:21.406Z,99210.81
2022-10-23T02:49:35.934Z,99222.03
2022-10-23T02:50:40.670Z,99225.66
2022-10-23T02:52:06.081Z,99230.31
2022-10-23T02:53:29.675Z,99235.16
2022-10-23T02:54:43.254Z,99228.22
2022-10-23T02:56:11.474Z,99228.97
2022-10-23T02:57:25.509Z,99217.84
2022-10-23T02:58:29.981Z,99233.19
2022-10-23T02:59:45.657Z,99238.22
2022-10-23T03:00:54.093Z,99245.28
2022-10-23T03:02:13.885Z,99250.31
2022-10-23T03:03:31.822Z,99250.66
2022-10-23T03:04:34.770Z,99253.97
2022-10-23T03:05:40.773Z,99252.78
2022-10-23T03:06:42.977Z,99234.34
2022-10-23T03:07:46.204Z,99235.28
2022-10-23T03:09:09.670Z,99240.44
2022-10-23T03:10:11.824Z,99238.88
2022-10-23T03:11:13.534Z,99237.13
2022-10-23T03:12:15.219Z,99240.78
2022-10-23T03:13:17.455Z,99235.53
2022-10-23T03:14:19.739Z,99242.47
2022-10-23T03:15:21.536Z,99240.44
2022-10-23T03:16:23.284Z,99248.81
2022-10-23T03:17:25.699Z,99250.66
2022-10-23T03:18:27.491Z,99256.56
2022-10-23T03:19:29.174Z,99245.56
2022-10-23T03:20:31.037Z,99253.91
2022-10-23T03:21:32.718Z,99255.31
2022-10-23T03:22:34.800Z,99258.78
2022-10-23T03:23:36.683Z,99246.81
2022-10-23T03:24:38.487Z,99253.53
2022-10-23T03:25:40.229Z,99266.97
2022-10-23T03:26:41.946Z,99247.66
2022-10-23T03:27:43.641Z,99259.88
2022-10-23T03:28:45.355Z,99251.50
2022-10-23T03:29:47.207Z,99242.56
2022-10-23T03:30:48.992Z,99247.03
2022-10-23T03:31:50.665Z,99246.00
2022-10-23T03:32:52.351Z,99246.53
2022-10-23T03:33:54.025Z,99244.03
2022-10-23T03:34:55.819Z,99241.22
2022-10-23T03:35:57.577Z,99243.66
2022-10-23T03:36:59.268Z,99246.25
2022-10-23T03:38:00.965Z,99255.06
2022-10-23T03:39:04.199Z,99245.50
2022-10-23T03:40:06.548Z,99248.69
2022-10-23T03:41:08.285Z,99252.53
2022-10-23T03:42:10.032Z,99239.66
2022-10-23T03:43:11.769Z,99246.06
2022-10-23T03:44:13.493Z,99241.75
2022-10-23T03:45:15.285Z,99235.28
2022-10-23T03:46:17.005Z,99243.69
2022-10-23T03:47:18.726Z,99237.03
2022-10-23T03:48:20.403Z,99241.63
2022-10-23T03:49:22.300Z,99239.97
2022-10-23T03:50:24.637Z,99244.06
2022-10-23T03:51:27.401Z,99269.31
2022-10-23T03:52:29.173Z,99256.78
2022-10-23T03:53:30.914Z,99278.94
2022-10-23T03:54:33.947Z,99272.25
2022-10-23T03:55:35.665Z,99278.88
2022-10-23T03:56:37.375Z,99274.47
2022-10-23T03:57:39.048Z,99273.34
2022-10-23T03:58:40.750Z,99266.28
2022-10-23T03:59:42.509Z,99259.06
2022-10-23T04:00:44.290Z,99256.41
2022-10-23T04:01:46.679Z,99250.22
2022-10-23T04:02:49.057Z,99259.53
2022-10-23T04:03:50.806Z,99255.94
2022-10-23T04:04:52.565Z,99258.84
2022-10-23T04:05:54.295Z,99246.94
2022-10-23T04:06:56.089Z,99269.28
2022-10-23T04:07:57.959Z,99264.81
2022-10-23T04:08:59.773Z,99264.81
2022-10-23T04:10:01.478Z,99259.78
2022-10-23T04:11:03.185Z,99259.91
2022-10-23T04:12:05.331Z,99253.66
2022-10-23T04:13:07.020Z,99248.66
2022-10-23T04:14:12.208Z,99252.91
2022-10-23T04:15:13.957Z,99251.41
2022-10-23T04:16:15.966Z,99265.53
2022-10-23T04:17:17.752Z,99266.22
2022-10-23T04:18:19.830Z,99260.06
2022-10-23T04:19:21.516Z,99267.97
2022-10-23T04:20:23.272Z,99269.03
2022-10-23T04:21:25.040Z,99274.47
2022-10-23T04:22:28.388Z,99280.97
2022-10-23T04:23:30.399Z,99280.84
2022-10-23T04:24:32.131Z,99275.66
2022-10-23T04:25:33.953Z,99274.63
2022-10-23T04:26:35.713Z,99286.09
2022-10-23T04:27:37.490Z,99291.75
2022-10-23T04:28:39.299Z,99281.34
2022-10-23T04:29:41.008Z,99284.00
2022-10-23T04:30:42.786Z,99282.38
2022-10-23T04:31:44.508Z,99275.75
2022-10-23T04:32:46.220Z,99272.53
2022-10-23T04:33:48.677Z,99274.97
2022-10-23T04:34:50.365Z,99279.72
2022-10-23T04:35:52.118Z,99265.69
2022-10-23T04:36:53.814Z,99273.69
2022-10-23T04:37:55.640Z,99266.72
2022-10-23T04:38:57.324Z,99266.72
2022-10-23T04:39:59.023Z,99272.66
2022-10-23T04:41:00.750Z,99269.75
2022-10-23T04:42:02.465Z,99267.78
2022-10-23T04:43:04.607Z,99269.53
2022-10-23T04:44:07.217Z,99266.72
2022-10-23T04:45:09.146Z,99271.09
2022-10-23T04:46:12.995Z,99273.13
2022-10-23T04:47:14.759Z,99265.09
2022-10-23T04:48:16.501Z,99274.81
2022-10-23T04:49:18.200Z,99276.28
2022-10-23T04:50:20.995Z,99276.75
2022-10-23T04:51:22.701Z,99270.47
2022-10-23T04:52:24.583Z,99270.19
2022-10-23T04:53:27.405Z,99271.63
2022-10-23T04:54:29.107Z,99270.19
2022-10-23T04:55:30.820Z,99270.19
2022-10-23T04:56:32.541Z,99253.88
2022-10-23T04:57:34.286Z,99273.78
2022-10-23T04:58:35.957Z,99269.16
2022-10-23T04:59:37.626Z,99249.41
2022-10-23T05:00:39.391Z,99272.16
2022-10-23T05:01:41.164Z,99246.97
2022-10-23T05:02:43.040Z,99269.75
2022-10-23T05:03:44.999Z,99261.72
2022-10-23T05:04:46.685Z,99280.88
2022-10-23T05:05:48.535Z,99273.75
2022-10-23T05:06:50.261Z,99279.22
2022-10-23T05:07:52.009Z,99283.31
2022-10-23T05:08:53.786Z,99277.47
2022-10-23T05:09:55.478Z,99289.09
2022-10-23T05:10:57.186Z,99283.50
2022-10-23T05:11:58.903Z,99286.47
2022-10-23T05:13:00.678Z,99267.78
2022-10-23T05:14:02.424Z,99284.72
2022-10-23T05:15:04.503Z,99285.00
2022-10-23T05:16:06.258Z,99276.53
2022-10-23T05:17:19.201Z,99283.03
2022-10-23T05:18:23.867Z,99281.72
2022-10-23T05:19:29.981Z,99274.78
2022-10-23T05:20:35.933Z,99280.81
2022-10-23T05:21:40.513Z,99287.56
2022-10-23T05:22:44.627Z,99291.09
2022-10-23T05:23:47.055Z,99288.97
2022-10-23T05:24:50.612Z,99290.13
2022-10-23T05:25:52.813Z,99296.28
2022-10-23T05:26:54.558Z,99287.72
2022-10-23T05:27:56.254Z,99289.88
2022-10-23T05:28:58.045Z,99295.00
2022-10-23T05:29:59.807Z,99289.13
2022-10-23T05:31:03.739Z,99297.47
2022-10-23T05:32:08.956Z,99296.94
2022-10-23T05:33:11.575Z,99289.44
2022-10-23T05:34:16.506Z,99285.19
2022-10-23T05:35:22.088Z,99289.50
2022-10-23T05:36:25.621Z,99290.09
2022-10-23T05:37:28.083Z,99278.81
2022-10-23T05:38:33.133Z,99289.03
2022-10-23T05:39:35.219Z,99287.44
2022-10-23T05:40:37.050Z,99304.88
2022-10-23T05:41:38.764Z,99299.81
2022-10-23T05:42:41.674Z,99311.63
2022-10-23T05:43:43.699Z,99308.16
2022-10-23T05:44:45.380Z,99314.88
2022-10-23T05:45:47.091Z,99305.22
2022-10-23T05:46:48.829Z,99316.03
2022-10-23T05:47:50.633Z,99314.97
2022-10-23T05:48:52.974Z,99323.28
2022-10-23T05:49:54.787Z,99323.56
2022-10-23T05:50:56.534Z,99320.88
2022-10-23T05:51:58.263Z,99323.34
2022-10-23T05:52:59.941Z,99328.41
2022-10-23T05:54:01.624Z,99328.97
2022-10-23T05:55:03.751Z,99323.66
2022-10-23T05:56:08.638Z,99331.19
2022-10-23T05:57:10.383Z,99341.38
2022-10-23T05:58:12.168Z,99333.34
2022-10-23T05:59:14.706Z,99341.94
2022-10-23T06:00:17.829Z,99340.63
2022-10-23T06:01:19.581Z,99337.69
2022-10-23T06:02:21.335Z,99343.31
2022-10-23T06:03:23.037Z,99339.56
2022-10-23T06:04:24.897Z,99347.38
2022-10-23T06:05:26.649Z,99346.03
2022-10-23T06:06:28.407Z,99333.97
2022-10-23T06:07:33.567Z,99358.94
2022-10-23T06:08:37.485Z,99351.97
2022-10-23T06:09:39.262Z,99360.56
2022-10-23T06:10:40.977Z,99354.94
2022-10-23T06:11:43.310Z,99357.63
2022-10-23T06:12:44.986Z,99355.50
2022-10-23T06:13:48.481Z,99358.72
2022-10-23T06:14:50.969Z,99353.91
2022-10-23T06:15:53.795Z,99366.78
2022-10-23T06:16:55.570Z,99356.59
2022-10-23T06:18:02.178Z,99375.13
2022-10-23T06:19:04.458Z,99374.84
2022-10-23T06:20:06.832Z,99377.53
2022-10-23T06:21:09.468Z,99365.19
2022-10-23T06:22:11.236Z,99365.75
2022-10-23T06:23:13.130Z,99371.41
2022-10-23T06:24:14.912Z,99361.75
2022-10-23T06:25:16.690Z,99368.75
2022-10-23T06:26:19.738Z,99369.53
2022-10-23T06:27:21.939Z,99374.09
2022-10-23T06:28:23.731Z,99367.91
2022-10-23T06:29:25.469Z,99367.66
2022-10-23T06:30:27.180Z,99379.25
2022-10-23T06:31:28.980Z,99390.25
2022-10-23T06:32:33.672Z,99371.44
2022-10-23T06:33:35.735Z,99375.47
2022-10-23T06:34:37.417Z,99384.91
2022-10-23T06:35:39.156Z,99388.41
2022-10-23T06:36:40.888Z,99392.72
2022-10-23T06:37:42.581Z,99387.88
2022-10-23T06:38:44.494Z,99379.81
2022-10-23T06:39:46.178Z,99394.09
2022-10-23T06:40:53.809Z,99394.38
2022-10-23T06:41:55.582Z,99396.78
2022-10-23T06:42:57.465Z,99394.34
2022-10-23T06:43:59.173Z,99394.31
2022-10-23T06:45:04.770Z,99399.91
2022-10-23T06:46:10.048Z,99406.91
2022-10-23T06:47:13.233Z,99409.53
2022-10-23T06:48:15.966Z,99398.47
2022-10-23T06:49:17.833Z,99414.81
2022-10-23T06:50:19.542Z,99419.56
2022-10-23T06:51:22.524Z,99409.06
2022-10-23T06:52:42.089Z,99400.97
2022-10-23T06:53:46.305Z,99420.25
2022-10-23T06:54:48.044Z,99420.75
2022-10-23T06:55:52.898Z,99417.34
2022-10-23T06:56:57.197Z,99428.00
2022-10-23T06:57:59.448Z,99424.16
2022-10-23T06:59:01.736Z,99422.94
2022-10-23T07:00:04.430Z,99426.34
2022-10-23T07:01:09.813Z,99437.06
2022-10-23T07:02:12.950Z,99424.78
2022-10-23T07:03:14.662Z,99439.44
2022-10-23T07:04:16.533Z,99432.63
2022-10-23T07:05:19.366Z,99443.56
2022-10-23T07:06:21.049Z,99439.53
2022-10-23T07:07:22.766Z,99443.03
2022-10-23T07:08:24.491Z,99439.69
2022-10-23T07:09:26.196Z,99441.53
2022-10-23T07:10:27.926Z,99458.78
2022-10-23T07:11:29.629Z,99445.56
2022-10-23T07:12:31.340Z,99448.22
2022-10-23T07:13:34.287Z,99441.69
2022-10-23T07:14:35.976Z,99444.72
2022-10-23T07:15:39.070Z,99442.72
2022-10-23T07:16:40.827Z,99447.13
2022-10-23T07:17:42.526Z,99443.34
2022-10-23T07:18:44.913Z,99447.53
2022-10-23T07:19:47.509Z,99441.72
2022-10-23T07:20:50.506Z,99439.72
2022-10-23T07:21:52.413Z,99447.25
2022-10-23T07:22:55.764Z,99449.72
2022-10-23T07:23:58.243Z,99449.31
2022-10-23T07:24:59.925Z,99445.81
2022-10-23T07:26:10.140Z,99442.72
2022-10-23T07:27:11.999Z,99423.66
2022-10-23T07:28:13.697Z,99445.75
2022-10-23T07:29:15.435Z,99440.72
2022-10-23T07:30:17.540Z,99440.34
2022-10-23T07:31:20.531Z,99443.06
2022-10-23T07:32:24.858Z,99444.38
2022-10-23T07:33:26.630Z,99443.56
2022-10-23T07:34:28.642Z,99453.22
2022-10-23T07:35:33.041Z,99447.16
2022-10-23T07:36:37.362Z,99457.16
2022-10-23T07:37:39.180Z,99440.38
2022-10-23T07:38:41.219Z,99433.06
2022-10-23T07:39:42.931Z,99428.25
2022-10-23T07:40:45.226Z,99429.06
2022-10-23T07:41:46.939Z,99431.47
2022-10-23T07:42:48.708Z,99439.00
2022-10-23T07:43:50.387Z,99428.97
2022-10-23T07:44:52.074Z,99449.13
2022-10-23T07:45:54.550Z,99446.53
2022-10-23T07:46:56.228Z,99447.16
2022-10-23T07:47:57.914Z,99441.28
2022-10-23T07:48:59.679Z,99449.81
2022-10-23T07:50:01.355Z,99436.53
2022-10-23T07:51:08.567Z,99438.75
2022-10-23T07:52:11.200Z,99441.97
2022-10-23T07:53:24.665Z,99445.56
2022-10-23T07:54:26.338Z,99451.19
2022-10-23T07:55:28.043Z,99443.34
2022-10-23T07:56:32.969Z,99455.53
2022-10-23T07:57:34.636Z,99449.19
2022-10-23T07:58:36.366Z,99449.69
2022-10-23T07:59:38.250Z,99443.13
2022-10-23T08:00:41.608Z,99451.44
2022-10-23T08:01:43.764Z,99449.09
2022-10-23T08:02:45.647Z,99442.94
2022-10-23T08:03:47.743Z,99437.50
2022-10-23T08:04:50.648Z,99439.47
2022-10-23T08:05:54.062Z,99439.72
2022-10-23T08:06:56.455Z,99429.47
2022-10-23T08:07:58.140Z,99425.25
2022-10-23T08:09:02.227Z,99433.53
2022-10-23T08:10:07.508Z,99438.69
2022-10-23T08:11:12.771Z,99436.63
2022-10-23T08:12:14.550Z,99428.16
2022-10-23T08:13:16.505Z,99414.22
2022-10-23T08:14:18.179Z,99441.53
2022-10-23T08:15:19.859Z,99430.94
2022-10-23T08:16:22.540Z,99440.84
2022-10-23T08:17:26.336Z,99436.19
2022-10-23T08:18:29.953Z,99434.25
2022-10-23T08:19:31.671Z,99433.19
2022-10-23T08:20:37.516Z,99434.78
2022-10-23T08:21:39.251Z,99418.00
2022-10-23T08:22:41.104Z,99432.41
2022-10-23T08:23:43.469Z,99430.81
2022-10-23T08:24:45.185Z,99433.84
2022-10-23T08:25:47.456Z,99424.94
2022-10-23T08:26:50.405Z,99428.94
2022-10-23T08:27:52.252Z,99427.97
2022-10-23T08:28:54.005Z,99443.94
2022-10-23T08:29:55.670Z,99438.00
2022-10-23T08:30:57.433Z,99437.63
2022-10-23T08:31:59.165Z,99441.50
2022-10-23T08:33:06.068Z,99433.44
2022-10-23T08:34:08.027Z,99438.69
2022-10-23T08:35:09.924Z,99436.31
2022-10-23T08:36:16.924Z,99437.75
2022-10-23T08:37:18.669Z,99441.28
2022-10-23T08:38:20.353Z,99417.28
2022-10-23T08:39:22.052Z,99433.91
2022-10-23T08:40:25.529Z,99423.34
2022-10-23T08:41:34.307Z,99422.41
2022-10-23T08:42:38.758Z,99422.84
2022-10-23T08:43:45.912Z,99421.75
2022-10-23T08:44:52.978Z,99414.81
2022-10-23T08:46:00.195Z,99410.16
2022-10-23T08:47:11.805Z,99416.41
2022-10-23T08:48:32.218Z,99414.66
2022-10-23T08:49:50.935Z,99415.16
2022-10-23T08:51:29.194Z,99416.44
2022-10-23T08:52:44.476Z,99404.94
2022-10-23T08:54:45.204Z,99406.84
2022-10-23T08:56:04.577Z,99398.00
2022-10-23T08:57:17.465Z,99413.19
2022-10-23T08:58:29.416Z,99402.94
2022-10-23T08:59:40.181Z,99405.47
2022-10-23T09:00:43.399Z,99410.19
2022-10-23T09:01:54.271Z,99420.78
2022-10-23T09:02:56.298Z,99415.84
2022-10-23T09:03:58.115Z,99411.00
2022-10-23T09:04:59.835Z,99412.25
2022-10-23T09:06:08.992Z,99418.63
2022-10-23T09:07:34.140Z,99414.59
2022-10-23T09:08:41.924Z,99426.50
2022-10-23T09:10:11.040Z,99419.75
2022-10-23T09:11:21.151Z,99412.81
2022-10-23T09:12:26.099Z,99412.41
2022-10-23T09:13:46.651Z,99412.88
2022-10-23T09:15:00.596Z,99423.41
2022-10-23T09:16:34.925Z,99421.63
2022-10-23T09:17:41.311Z,99423.28
2022-10-23T09:18:43.916Z,99421.00
2022-10-23T09:19:46.811Z,99426.81
2022-10-23T09:20:48.756Z,99437.81
2022-10-23T09:21:50.622Z,99423.44
2022-10-23T09:22:58.287Z,99428.03
2022-10-23T09:23:59.974Z,99406.47
2022-10-23T09:25:01.656Z,99433.72
2022-10-23T09:26:12.920Z,99437.44
2022-10-23T09:27:17.813Z,99442.38
2022-10-23T09:28:25.659Z,99418.88
2022-10-23T09:29:36.228Z,99446.56
2022-10-23T09:30:40.774Z,99438.44
2022-10-23T09:31:56.514Z,99425.94
2022-10-23T09:32:59.111Z,99433.56
2022-10-23T09:34:02.313Z,99430.56
2022-10-23T09:35:05.834Z,99431.38
2022-10-23T09:36:18.997Z,99427.19
2022-10-23T09:37:26.869Z,99428.19
2022-10-23T09:38:39.825Z,99421.47
2022-10-23T09:39:41.587Z,99425.66
2022-10-23T09:40:43.786Z,99421.03
2022-10-23T09:41:45.926Z,99415.59
2022-10-23T09:43:00.009Z,99415.91
2022-10-23T09:44:04.392Z,99413.94
2022-10-23T09:45:22.520Z,99416.59
2022-10-23T09:46:24.232Z,99406.50
2022-10-23T09:47:26.192Z,99417.41
2022-10-23T09:48:28.045Z,99417.72
2022-10-23T09:49:32.124Z,99427.47
2022-10-23T09:50:33.860Z,99424.38
2022-10-23T09:51:35.678Z,99415.13
2022-10-23T09:52:39.135Z,99413.22
2022-10-23T09:53:56.978Z,99422.53
2022-10-23T09:55:01.741Z,99413.38
2022-10-23T09:56:27.997Z,99412.53
2022-10-23T09:57:38.481Z,99402.41
2022-10-23T09:58:53.424Z,99394.59
2022-10-23T09:59:59.790Z,99397.06
2022-10-23T10:01:01.893Z,99390.91
2022-10-23T10:02:04.777Z,99396.13
2022-10-23T10:03:19.413Z,99402.22
2022-10-23T10:04:39.175Z,99391.09
2022-10-23T10:05:44.018Z,99398.72
2022-10-23T10:06:45.826Z,99396.22
2022-10-23T10:08:14.842Z,99410.56
2022-10-23T10:09:17.931Z,99399.78
2022-10-23T10:10:19.698Z,99397.75
2022-10-23T10:11:46.342Z,99389.78
2022-10-23T10:12:54.952Z,99389.88
2022-10-23T10:14:14.924Z,99387.06
2022-10-23T10:15:28.576Z,99387.75
2022-10-23T10:16:52.880Z,99405.78
2022-10-23T10:17:54.519Z,99395.19
2022-10-23T10:19:10.899Z,99396.16
2022-10-23T10:20:18.458Z,99386.22
2022-10-23T10:21:31.334Z,99393.41
2022-10-23T10:22:44.223Z,99382.47
2022-10-23T10:23:53.754Z,99379.84
2022-10-23T10:25:23.712Z,99377.81
2022-10-23T10:26:42.067Z,99364.19
2022-10-23T10:28:08.606Z,99371.66
2022-10-23T10:29:31.455Z,99365.88
2022-10-23T10:30:57.626Z,99369.47
2022-10-23T10:32:06.083Z,99376.75
2022-10-23T10:33:39.053Z,99361.19
2022-10-23T10:34:55.228Z,99360.50
2022-10-23T10:36:10.533Z,99363.66
2022-10-23T10:37:34.612Z,99368.59
2022-10-23T10:38:46.594Z,99368.13
2022-10-23T10:40:01.362Z,99358.25
2022-10-23T10:41:06.116Z,99365.22
2022-10-23T10:42:29.214Z,99366.25
2022-10-23T10:44:09.336Z,99360.22
2022-10-23T10:45:31.098Z,99359.63
2022-10-23T10:46:49.364Z,99357.66
2022-10-23T10:47:57.134Z,99351.09
2022-10-23T10:49:07.615Z,99348.38
2022-10-23T10:50:26.507Z,99345.66
2022-10-23T10:52:01.365Z,99355.94
2022-10-23T10:53:28.369Z,99353.56
2022-10-23T10:54:59.678Z,99351.47
2022-10-23T10:56:03.907Z,99356.72
2022-10-23T10:57:34.600Z,99341.97
2022-10-23T10:58:36.589Z,99350.78
2022-10-23T10:59:42.714Z,99351.91
2022-10-23T11:00:47.280Z,99350.78
2022-10-23T11:01:58.855Z,99344.69
2022-10-23T11:03:40.319Z,99344.22
2022-10-23T11:04:49.010Z,99334.63
2022-10-23T11:05:53.634Z,99341.03
2022-10-23T11:06:56.738Z,99324.06
2022-10-23T11:08:00.554Z,99327.38
2022-10-23T11:09:20.417Z,99327.84
2022-10-23T11:10:23.279Z,99331.50
2022-10-23T11:11:33.064Z,99331.78
2022-10-23T11:12:34.766Z,99324.38
2022-10-23T11:13:42.197Z,99322.44
2022-10-23T11:14:45.207Z,99324.78
2022-10-23T11:15:47.440Z,99328.00
2022-10-23T11:16:58.761Z,99321.56
2022-10-23T11:18:04.737Z,99324.84
2022-10-23T11:19:14.404Z,99325.31
2022-10-23T11:20:34.788Z,99323.88
2022-10-23T11:21:47.741Z,99327.66
2022-10-23T11:23:18.045Z,99324.13
2022-10-23T11:24:55.846Z,99329.72
2022-10-23T11:26:23.349Z,99324.47
2022-10-23T11:28:01.678Z,99326.13
2022-10-23T11:29:30.527Z,99316.56
2022-10-23T11:30:41.550Z,99318.03
2022-10-23T11:32:05.418Z,99319.28
2022-10-23T11:33:13.058Z,99316.97
2022-10-23T11:34:17.914Z,99311.88
2022-10-23T11:35:30.871Z,99305.47
2022-10-23T11:36:41.648Z,99309.34
2022-10-23T11:37:43.637Z,99307.06
2022-10-23T11:38:50.984Z,99299.25
2022-10-23T11:40:03.289Z,99302.56
2022-10-23T11:41:19.930Z,99303.75
2022-10-23T11:42:32.751Z,99298.53
2022-10-23T11:43:55.547Z,99299.94
2022-10-23T11:44:57.371Z,99295.47
2022-10-23T11:46:11.153Z,99296.47
2022-10-23T11:47:38.968Z,99308.19
2022-10-23T11:48:43.889Z,99301.47
2022-10-23T11:49:45.574Z,99289.97
2022-10-23T11:50:47.522Z,99300.16
2022-10-23T11:52:00.192Z,99291.84
2022-10-23T11:53:15.226Z,99287.13
2022-10-23T11:54:17.688Z,99292.47
2022-10-23T11:55:30.915Z,99287.34
2022-10-23T11:56:34.257Z,99280.91
2022-10-23T11:57:36.033Z,99277.56
2022-10-23T11:58:43.667Z,99287.44
2022-10-23T11:59:45.293Z,99287.13
2022-10-23T12:01:01.394Z,99279.59
2022-10-23T12:02:21.245Z,99279.41
2022-10-23T12:03:29.082Z,99280.56
2022-10-23T12:04:41.426Z,99282.59
2022-10-23T12:05:45.453Z,99280.47
2022-10-23T12:07:00.086Z,99275.44
2022-10-23T12:08:03.385Z,99274.25
2022-10-23T12:09:09.340Z,99280.75
2022-10-23T12:10:30.909Z,99278.56
2022-10-23T12:11:45.367Z,99282.66
2022-10-23T12:12:59.085Z,99276.38
2022-10-23T12:14:00.855Z,99277.75
2022-10-23T12:15:11.539Z,99284.19
2022-10-23T12:16:13.991Z,99283.38
2022-10-23T12:17:24.759Z,99289.59
2022-10-23T12:18:27.601Z,99282.38
2022-10-23T12:19:43.950Z,99279.75
2022-10-23T12:20:54.215Z,99281.56
2022-10-23T12:22:01.412Z,99277.34
2022-10-23T12:23:23.143Z,99283.28
2022-10-23T12:24:51.204Z,99296.81
2022-10-23T12:26:01.620Z,99291.81
2022-10-23T12:27:09.170Z,99289.00
2022-10-23T12:28:19.801Z,99283.94
2022-10-23T12:30:02.955Z,99285.34
2022-10-23T12:31:20.862Z,99282.63
2022-10-23T12:32:54.299Z,99271.72
2022-10-23T12:34:19.168Z,99284.34
2022-10-23T12:35:39.056Z,99285.16
2022-10-23T12:37:19.610Z,99274.00
2022-10-23T12:38:25.608Z,99283.16
2022-10-23T12:39:37.514Z,99291.06
2022-10-23T12:40:39.252Z,99281.94
2022-10-23T12:41:42.807Z,99291.25
2022-10-23T12:42:55.036Z,99289.59
2022-10-23T12:44:01.159Z,99286.28
2022-10-23T12:45:15.986Z,99286.88
2022-10-23T12:46:46.905Z,99295.59
2022-10-23T12:47:49.795Z,99283.16
2022-10-23T12:48:54.100Z,99289.66
2022-10-23T12:49:56.010Z,99292.59
2022-10-23T12:50:57.733Z,99281.75
2022-10-23T12:51:59.515Z,99285.28
2022-10-23T12:53:04.501Z,99282.56
2022-10-23T12:54:18.385Z,99284.75
2022-10-23T12:55:20.262Z,99284.53
2022-10-23T12:56:22.572Z,99280.75
2022-10-23T12:57:28.216Z,99282.94
2022-10-23T12:58:35.019Z,99281.94
2022-10-23T12:59:38.697Z,99278.94
2022-10-23T13:00:50.869Z,99274.81
2022-10-23T13:01:54.504Z,99278.31
2022-10-23T13:03:00.852Z,99268.13
2022-10-23T13:04:14.032Z,99279.94
2022-10-23T13:05:19.646Z,99278.31
2022-10-23T13:06:22.933Z,99277.53
2022-10-23T13:07:28.069Z,99262.50
2022-10-23T13:08:44.755Z,99270.31
2022-10-23T13:09:46.868Z,99264.09